Time;durP1;ratioP1;P1;durP2;ratioP2;P2;SDS_P1;SDS_P2;PMS_P1;PMS_P2;Temp;Humidity;BMP_temperature;BMP_pressure;BME280_temperature;BME280_humidity;BME280_pressure;Samples;Min_cycle;Max_cycle;Signal;HPM_P1;HPM_P2
2023/08/21 10:49:09;;;;;;;9.60;8.70;;;;;;;32.72;45.16;98742.91;102619;1295;613898;-85
2023/08/21 10:51:36;;;;;;;10.40;9.40;;;;;;;33.04;43.99;98740.22;104858;1272;120491;-86
2023/08/21 10:54:13;;;;;;;9.90;9.10;;;;;;;33.06;44.54;98735.64;105120;1271;61120;-87
2023/08/21 10:56:40;;;;;;;9.50;8.60;;;;;;;33.14;45.33;98737.20;105865;1266;71002;-88
2023/08/21 10:59:07;;;;;;;10.50;9.80;;;;;;;33.17;45.49;98741.30;105468;1260;74310;-90
2023/08/21 11:01:44;;;;;;;10.30;9.40;;;;;;;33.23;45.61;98736.45;105371;1261;70842;-86
2023/08/21 11:04:14;;;;;;;9.50;8.60;;;;;;;33.33;45.64;98738.41;105479;1260;61101;-85
2023/08/21 11:06:41;;;;;;;9.90;8.90;;;;;;;33.39;45.70;98740.17;105598;1266;61128;-87
2023/08/21 11:09:16;;;;;;;9.60;8.90;;;;;;;33.44;44.84;98747.21;105863;1261;70710;-89
2023/08/21 11:11:43;;;;;;;9.60;8.70;;;;;;;33.51;44.88;98745.69;106256;1263;72539;-89
2023/08/21 11:14:10;;;;;;;9.10;8.30;;;;;;;33.53;43.93;98752.01;105703;1263;73484;-86
2023/08/21 11:16:38;;;;;;;8.90;8.10;;;;;;;33.56;43.21;98750.90;105778;1263;61165;-87
2023/08/21 11:19:05;;;;;;;9.60;8.90;;;;;;;33.63;43.30;98749.89;105740;1261;61116;-85
2023/08/21 11:21:32;;;;;;;8.60;8.00;;;;;;;33.74;43.17;98746.48;105236;1264;73388;-84
2023/08/21 11:24:00;;;;;;;8.30;7.70;;;;;;;33.89;42.03;98745.33;105821;1265;73793;-85
2023/08/21 11:26:32;;;;;;;8.30;7.70;;;;;;;34.06;42.00;98742.58;105041;1263;72685;-85
2023/08/21 11:29:02;;;;;;;8.30;7.50;;;;;;;34.21;42.13;98743.30;105514;1261;61093;-85
2023/08/21 11:31:29;;;;;;;8.00;7.30;;;;;;;34.33;41.22;98744.29;107611;1258;59788;-87
2023/08/21 11:33:56;;;;;;;8.10;7.50;;;;;;;34.46;40.94;98739.71;105640;1257;71865;-88
2023/08/21 11:36:33;;;;;;;8.40;7.80;;;;;;;34.60;39.57;98734.29;105577;1261;72737;-86
2023/08/21 11:39:03;;;;;;;7.20;6.60;;;;;;;34.73;38.03;98731.09;105813;1260;71148;-85
2023/08/21 11:41:30;;;;;;;6.60;6.10;;;;;;;34.86;37.34;98733.98;106634;1257;61261;-86
2023/08/21 11:44:08;;;;;;;7.20;6.70;;;;;;;35.00;38.17;98732.55;105530;1258;61145;-84
2023/08/21 11:46:35;;;;;;;8.60;7.90;;;;;;;35.16;37.90;98736.56;105395;1256;71286;-85
2023/08/21 11:49:05;;;;;;;6.80;6.30;;;;;;;35.30;37.09;98733.36;105421;1260;72787;-83
2023/08/21 11:51:38;;;;;;;6.20;5.80;;;;;;;35.41;36.36;98730.76;105316;1263;72294;-82
2023/08/21 11:54:05;;;;;;;;;;;;;;;35.52;36.86;98731.73;106425;1260;61122;-83
2023/08/21 11:56:32;;;;;;;5.80;5.40;;;;;;;35.62;35.86;98732.41;106511;1257;61174;-83
2023/08/21 11:59:03;;;;;;;7.00;6.00;;;;;;;35.76;35.53;98732.27;105943;1258;73377;-84
2023/08/21 12:01:32;;;;;;;6.00;5.50;;;;;;;35.91;35.85;98734.13;105473;1255;73589;-88
2023/08/21 12:04:00;;;;;;;6.50;5.90;;;;;;;36.10;35.52;98732.19;108308;1257;72166;-84
2023/08/21 12:06:32;;;;;;;6.90;6.20;;;;;;;36.27;35.10;98734.83;106834;1259;61034;-85
2023/08/21 12:09:00;;;;;;;27.80;25.40;;;;;;;36.41;34.51;98733.42;105566;1262;61082;-85
2023/08/21 12:11:27;;;;;;;8.00;7.40;;;;;;;36.52;34.49;98729.15;108744;1257;72956;-85
2023/08/21 12:13:54;;;;;;;7.90;7.10;;;;;;;36.62;34.69;98725.69;108718;1257;74704;-86
2023/08/21 12:16:21;;;;;;;6.10;5.60;;;;;;;36.68;34.86;98725.13;106329;1260;62543;-89
2023/08/21 12:18:48;;;;;;;6.50;6.00;;;;;;;36.75;35.35;98726.19;105499;1260;61132;-86
2023/08/21 12:21:16;;;;;;;6.20;5.80;;;;;;;36.83;34.09;98726.52;105490;1256;61056;-86
2023/08/21 12:23:42;;;;;;;6.90;6.50;;;;;;;36.88;33.35;98732.21;105575;1258;64990;-85
2023/08/21 12:26:09;;;;;;;6.50;5.90;;;;;;;36.87;33.60;98731.59;105664;1260;65474;-86
2023/08/21 12:28:37;;;;;;;6.70;6.30;;;;;;;36.92;34.31;98726.91;105506;1260;63702;-84
2023/08/21 12:31:04;;;;;;;5.70;5.20;;;;;;;36.98;33.58;98729.24;105547;1263;61057;-87
2023/08/21 12:33:31;;;;;;;6.80;6.30;;;;;;;37.03;33.13;98728.55;105434;1257;61200;-88
2023/08/21 12:35:58;;;;;;;6.90;6.40;;;;;;;37.10;33.40;98723.82;105576;1257;62964;-87
2023/08/21 12:38:29;;;;;;;7.20;6.60;;;;;;;37.18;33.43;98726.79;105544;1258;65649;-88
2023/08/21 12:40:56;;;;;;;6.30;5.90;;;;;;;37.26;32.91;98727.80;105565;1257;63756;-89
2023/08/21 12:43:28;;;;;;;7.00;6.40;;;;;;;37.32;32.69;98725.19;105345;1263;61088;-87
2023/08/21 12:45:55;;;;;;;6.40;5.90;;;;;;;37.36;32.54;98726.76;105400;1257;61087;-86
2023/08/21 12:48:22;;;;;;;6.90;6.30;;;;;;;37.39;32.70;98722.06;105465;1257;64331;-89
2023/08/21 12:50:50;;;;;;;6.80;6.30;;;;;;;37.44;32.42;98720.80;105328;1264;65409;-85
2023/08/21 12:53:17;;;;;;;6.60;6.10;;;;;;;37.45;31.84;98720.91;107274;1257;64895;-86
2023/08/21 12:55:44;;;;;;;6.40;6.00;;;;;;;37.46;32.12;98720.64;105549;1262;61076;-87
2023/08/21 12:58:13;;;;;;;6.50;6.00;;;;;;;37.48;32.05;98719.41;105404;1257;61697;-87
2023/08/21 13:00:40;;;;;;;6.50;6.00;;;;;;;37.52;31.90;98711.80;105352;1262;71655;-86
2023/08/21 13:03:08;;;;;;;5.90;5.40;;;;;;;37.61;31.59;98713.45;105448;1262;65678;-89
2023/08/21 13:05:36;;;;;;;5.80;5.40;;;;;;;37.69;30.50;98704.86;105660;1254;62511;-87
2023/08/21 13:08:03;;;;;;;7.30;5.30;;;;;;;37.76;30.37;98702.65;105875;1259;61201;-85
2023/08/21 13:10:31;;;;;;;5.90;5.50;;;;;;;37.81;30.14;98698.05;105983;1266;61037;-85
2023/08/21 13:12:58;;;;;;;6.00;5.00;;;;;;;37.87;29.84;98692.56;105787;1254;73594;-88
2023/08/21 13:15:25;;;;;;;5.50;5.10;;;;;;;37.96;29.77;98688.27;105720;1258;65466;-85
2023/08/21 13:17:52;;;;;;;6.10;5.60;;;;;;;38.09;29.89;98680.85;106110;1257;73593;-84
2023/08/21 13:20:20;;;;;;;5.80;5.40;;;;;;;38.22;29.38;98682.45;105740;1254;61010;-84
2023/08/21 13:22:51;;;;;;;6.40;5.50;;;;;;;38.36;29.07;98686.25;105679;1256;61162;-84
2023/08/21 13:25:24;;;;;;;6.10;5.60;;;;;;;38.53;29.47;98682.64;105890;1254;63679;-85
2023/08/21 13:27:51;;;;;;;7.50;6.00;;;;;;;38.70;30.04;98683.08;105799;1255;65699;-86
2023/08/21 13:30:20;;;;;;;6.00;5.00;;;;;;;38.86;29.81;98682.88;106509;1255;64726;-90
2023/08/21 13:32:49;;;;;;;6.80;6.30;;;;;;;38.96;29.67;98681.95;105662;1254;61109;-86
2023/08/21 13:35:16;;;;;;;5.00;4.60;;;;;;;39.03;29.96;98679.27;108635;1252;60961;-87
2023/08/21 13:37:43;;;;;;;5.80;5.40;;;;;;;39.15;29.55;98677.17;109133;1254;64715;-87
2023/08/21 13:40:11;;;;;;;6.00;5.60;;;;;;;39.32;29.01;98677.14;107445;1254;66756;-86
2023/08/21 13:42:41;;;;;;;6.00;5.50;;;;;;;39.49;29.24;98678.47;106835;1254;64013;-85
2023/08/21 13:45:12;;;;;;;5.00;4.60;;;;;;;39.61;28.99;98679.48;105751;1254;60980;-87
2023/08/21 13:47:40;;;;;;;6.50;4.70;;;;;;;39.64;28.27;98679.41;105908;1254;61231;-86
2023/08/21 13:50:09;;;;;;;5.00;4.70;;;;;;;39.60;27.99;98682.64;106048;1254;64307;-85
2023/08/21 13:52:39;;;;;;;5.40;5.10;;;;;;;39.46;27.64;98680.34;105951;1254;66767;-87
2023/08/21 13:55:08;;;;;;;5.70;5.20;;;;;;;39.24;28.16;98682.02;108397;1254;62574;-88
2023/08/21 13:57:39;;;;;;;5.70;5.30;;;;;;;39.01;29.10;98685.58;105969;1256;61122;-84
2023/08/21 14:00:08;;;;;;;6.30;5.90;;;;;;;38.76;29.97;98679.88;106312;1254;61075;-86
2023/08/21 14:02:36;;;;;;;6.70;6.20;;;;;;;38.51;30.78;98675.87;109079;1254;64308;-87
2023/08/21 14:05:04;;;;;;;6.70;6.00;;;;;;;38.29;31.48;98675.55;107083;1258;75337;-89
2023/08/21 14:07:32;;;;;;;6.30;5.80;;;;;;;38.11;31.75;98673.86;105910;1259;62430;-87
2023/08/21 14:09:59;;;;;;;6.70;6.30;;;;;;;37.95;32.17;98674.40;105808;1254;61094;-87
2023/08/21 14:12:30;;;;;;;5.90;5.50;;;;;;;37.84;32.45;98672.55;105647;1254;61153;-90
2023/08/21 14:14:59;;;;;;;7.40;5.50;;;;;;;37.77;32.25;98672.98;105989;1261;64183;-88
2023/08/21 14:17:26;;;;;;;6.10;5.60;;;;;;;37.72;32.47;98668.66;106400;1254;65715;-88
2023/08/21 14:19:54;;;;;;;7.70;6.20;;;;;;;37.72;32.53;98666.65;107118;1254;74039;-86
2023/08/21 14:22:21;;;;;;;6.60;6.10;;;;;;;37.75;32.92;98668.11;105822;1254;61027;-86
2023/08/21 14:24:48;;;;;;;7.40;6.80;;;;;;;37.76;33.11;98668.62;105888;1254;61046;-85
2023/08/21 14:27:15;;;;;;;7.80;7.10;;;;;;;37.68;32.85;98668.69;105709;1260;75539;-85
2023/08/21 14:29:46;;;;;;;6.60;6.00;;;;;;;37.54;33.31;98664.91;106257;1254;65738;-84
2023/08/21 14:32:13;;;;;;;7.40;6.30;;;;;;;37.31;33.51;98660.92;105685;1254;63963;-87
2023/08/21 14:34:40;;;;;;;6.90;6.40;;;;;;;37.11;33.93;98658.24;105707;1256;61101;-86
2023/08/21 14:37:08;;;;;;;6.80;6.20;;;;;;;36.94;34.58;98659.08;105806;1254;61122;-85
2023/08/21 14:39:35;;;;;;;7.60;6.90;;;;;;;36.84;35.15;98655.67;105622;1257;64603;-87
2023/08/21 14:42:02;;;;;;;7.00;6.50;;;;;;;36.76;35.01;98656.35;105694;1256;65394;-86
2023/08/21 14:44:30;;;;;;;7.10;6.60;;;;;;;36.63;35.01;98655.04;105565;1256;64532;-87
2023/08/21 14:46:57;;;;;;;7.20;6.40;;;;;;;36.49;34.66;98652.27;105711;1257;61306;-86
2023/08/21 14:49:29;;;;;;;9.50;6.70;;;;;;;36.38;33.77;98648.38;105429;1260;61237;-86
2023/08/21 14:51:56;;;;;;;6.10;5.60;;;;;;;36.29;33.79;98651.96;105455;1260;65766;-87
2023/08/21 14:54:24;;;;;;;6.00;5.50;;;;;;;36.30;33.84;98644.38;105452;1256;74320;-85
2023/08/21 14:56:51;;;;;;;6.70;6.10;;;;;;;36.34;34.20;98644.78;105710;1258;72350;-86
2023/08/21 14:59:18;;;;;;;6.40;5.90;;;;;;;36.45;34.30;98638.42;105641;1256;61095;-87
2023/08/21 15:01:45;;;;;;;7.50;6.10;;;;;;;36.56;33.94;98641.95;105607;1259;62007;-85
2023/08/21 15:04:12;;;;;;;6.60;6.20;;;;;;;36.70;34.10;98638.79;105471;1262;74005;-86
2023/08/21 15:06:39;;;;;;;7.20;6.50;;;;;;;36.82;34.34;98633.39;105615;1256;65214;-85
2023/08/21 15:09:08;;;;;;;6.90;6.20;;;;;;;36.94;34.76;98632.89;106191;1256;64821;-84
2023/08/21 15:11:35;;;;;;;7.20;6.60;;;;;;;37.04;34.49;98631.23;105947;1256;60538;-86
2023/08/21 15:14:03;;;;;;;5.80;5.50;;;;;;;37.13;34.37;98631.55;105993;1256;61094;-86
2023/08/21 15:16:30;;;;;;;7.50;6.50;;;;;;;37.18;34.44;98627.65;105979;1256;66211;-88
2023/08/21 15:18:58;;;;;;;6.50;6.00;;;;;;;37.24;34.17;98628.14;105720;1258;66501;-86
2023/08/21 15:21:25;;;;;;;6.20;5.70;;;;;;;37.22;33.96;98627.95;105600;1259;62984;-85
2023/08/21 15:23:53;;;;;;;6.70;6.20;;;;;;;37.11;33.75;98626.50;105922;1257;61055;-85
2023/08/21 15:26:20;;;;;;;6.70;6.10;;;;;;;36.89;34.07;98628.21;105923;1256;61067;-85
2023/08/21 15:28:48;;;;;;;7.80;6.50;;;;;;;36.54;34.97;98624.94;105983;1256;72807;-87
2023/08/21 15:31:19;;;;;;;7.50;6.90;;;;;;;36.22;35.71;98625.77;105735;1256;75240;-86
2023/08/21 15:33:47;;;;;;;7.00;6.40;;;;;;;35.92;36.81;98621.69;105849;1256;63959;-89
2023/08/21 15:36:14;;;;;;;8.00;7.10;;;;;;;35.59;37.86;98624.05;106256;1256;61168;-86
2023/08/21 15:38:41;;;;;;;8.20;7.50;;;;;;;35.30;38.59;98626.86;106143;1260;61251;-87
2023/08/21 15:41:09;;;;;;;11.30;7.90;;;;;;;35.02;39.61;98628.88;105814;1259;73829;-89
2023/08/21 15:43:36;;;;;;;8.50;7.80;;;;;;;34.78;40.43;98626.23;105887;1260;74161;-88
2023/08/21 15:46:04;;;;;;;9.60;8.20;;;;;;;34.55;41.04;98630.30;106854;1254;71713;-86
2023/08/21 15:48:33;;;;;;;11.00;8.70;;;;;;;34.33;41.91;98635.83;106874;1254;61043;-89
2023/08/21 15:51:00;;;;;;;13.90;12.60;;;;;;;34.10;42.48;98635.97;106478;1253;61162;-87
2023/08/21 15:53:27;;;;;;;16.70;15.20;;;;;;;33.87;43.05;98640.05;105816;1254;73678;-86
2023/08/21 15:55:54;;;;;;;19.10;17.10;;;;;;;33.65;43.83;98642.15;106534;1254;73475;-86
2023/08/21 15:58:22;;;;;;;18.70;16.80;;;;;;;33.45;44.20;98641.06;106338;1254;72418;-86
2023/08/21 16:00:49;;;;;;;20.30;18.10;;;;;;;33.35;44.85;98644.04;106367;1257;61096;-89
2023/08/21 16:03:16;;;;;;;23.30;18.50;;;;;;;33.32;45.03;98639.04;106553;1254;61162;-88
2023/08/21 16:05:43;;;;;;;20.30;15.10;;;;;;;33.38;45.03;98644.56;106702;1254;73800;-87
2023/08/21 16:08:11;;;;;;;15.60;14.10;;;;;;;33.50;44.71;98642.66;107210;1258;73993;-86
2023/08/21 16:10:38;;;;;;;16.50;14.40;;;;;;;33.64;44.42;98646.80;106389;1254;72006;-86
2023/08/21 16:13:05;;;;;;;15.90;14.30;;;;;;;33.72;44.22;98648.80;105709;1259;61154;-85
2023/08/21 16:15:32;;;;;;;17.70;13.70;;;;;;;33.74;44.01;98645.08;105751;1254;61056;-86
2023/08/21 16:18:00;;;;;;;14.50;13.10;;;;;;;33.69;44.22;98647.91;105748;1254;74812;-89
2023/08/21 16:20:28;;;;;;;14.30;11.80;;;;;;;33.61;44.45;98647.59;105507;1254;74478;-87
2023/08/21 16:22:55;;;;;;;14.20;11.40;;;;;;;33.49;44.72;98646.58;105654;1258;72591;-86
2023/08/21 16:25:22;;;;;;;12.30;11.30;;;;;;;33.40;44.99;98647.64;105655;1254;61101;-87
2023/08/21 16:27:49;;;;;;;12.80;11.60;;;;;;;33.32;45.49;98651.38;105648;1256;61519;-85
2023/08/21 16:30:17;;;;;;;12.60;11.40;;;;;;;33.28;45.75;98649.54;105678;1254;73520;-88
2023/08/21 16:32:44;;;;;;;12.80;10.90;;;;;;;33.25;46.09;98648.04;105730;1259;74795;-86
2023/08/21 16:35:11;;;;;;;13.20;11.30;;;;;;;33.19;46.17;98647.23;105844;1257;72291;-86
2023/08/21 16:37:38;;;;;;;13.10;11.20;;;;;;;33.10;46.59;98647.20;106125;1254;61193;-90
2023/08/21 16:40:08;;;;;;;12.30;11.20;;;;;;;32.99;46.80;98647.37;106250;1254;60988;-88
2023/08/21 16:42:35;;;;;;;14.80;12.40;;;;;;;32.84;47.27;98649.83;106775;1255;73729;-85
2023/08/21 16:45:03;;;;;;;13.70;12.50;;;;;;;32.69;47.80;98650.95;106043;1256;75189;-86
2023/08/21 16:47:32;;;;;;;15.70;14.20;;;;;;;32.53;48.16;98649.96;105653;1256;73529;-87
2023/08/21 16:49:59;;;;;;;21.00;18.80;;;;;;;32.37;48.98;98650.94;105900;1256;61132;-86
2023/08/21 16:52:30;;;;;;;22.90;20.50;;;;;;;32.22;49.57;98647.11;105512;1256;61058;-86
2023/08/21 16:54:57;;;;;;;22.90;19.30;;;;;;;32.05;49.89;98643.20;105693;1256;74936;-85
2023/08/21 16:57:24;;;;;;;22.30;17.80;;;;;;;31.91;50.51;98648.17;105497;1257;74469;-86
2023/08/21 16:59:51;;;;;;;16.00;14.50;;;;;;;31.76;51.08;98645.63;105662;1257;72825;-86
2023/08/21 17:02:22;;;;;;;13.10;11.60;;;;;;;31.61;51.49;98648.14;105637;1255;61135;-88
2023/08/21 17:04:49;;;;;;;13.40;12.00;;;;;;;31.46;51.88;98646.33;105607;1255;61167;-86
2023/08/21 17:07:17;;;;;;;12.40;11.00;;;;;;;31.31;52.70;98646.31;105575;1258;73449;-86
2023/08/21 17:09:45;;;;;;;13.60;11.60;;;;;;;31.16;53.10;98645.84;105704;1258;75935;-85
2023/08/21 17:12:13;;;;;;;13.70;12.60;;;;;;;31.03;53.78;98645.47;105606;1258;72496;-86
2023/08/21 17:14:41;;;;;;;14.40;13.20;;;;;;;30.90;53.99;98645.13;105591;1258;61193;-88
2023/08/21 17:17:08;;;;;;;14.60;13.10;;;;;;;30.77;54.27;98640.65;105394;1256;61046;-87
2023/08/21 17:19:35;;;;;;;14.80;13.40;;;;;;;30.66;54.96;98641.92;105550;1257;73002;-87
2023/08/21 17:22:02;;;;;;;21.40;15.00;;;;;;;30.57;55.24;98645.19;105598;1258;75337;-87
2023/08/21 17:24:29;;;;;;;16.90;13.70;;;;;;;30.47;55.77;98645.67;105542;1255;73468;-86
2023/08/21 17:26:56;;;;;;;15.60;14.00;;;;;;;30.38;55.97;98644.22;105691;1256;61180;-85
2023/08/21 17:29:28;;;;;;;16.00;14.70;;;;;;;30.31;56.55;98641.64;106025;1256;61048;-85
2023/08/21 17:31:55;;;;;;;15.80;14.40;;;;;;;30.24;56.96;98643.02;105892;1256;71542;-85
2023/08/21 17:34:22;;;;;;;17.10;15.40;;;;;;;30.16;57.30;98640.63;105739;1256;75616;-85
2023/08/21 17:36:51;;;;;;;26.70;17.50;;;;;;;30.08;57.76;98645.17;105742;1256;71257;-85
2023/08/21 17:39:19;;;;;;;18.80;17.00;;;;;;;29.99;58.23;98645.59;106107;1256;61097;-84
2023/08/21 17:41:46;;;;;;;19.80;16.40;;;;;;;29.89;58.36;98647.98;106027;1256;61082;-85
2023/08/21 17:44:14;;;;;;;20.70;18.70;;;;;;;29.80;58.78;98647.63;105896;1256;74507;-87
2023/08/21 17:46:41;;;;;;;23.00;20.80;;;;;;;29.73;59.28;98658.60;105669;1256;72817;-86
2023/08/21 17:49:08;;;;;;;27.40;22.00;;;;;;;29.66;59.87;98660.70;105724;1255;71384;-85
2023/08/21 17:51:35;;;;;;;23.40;19.80;;;;;;;29.60;60.48;98664.02;105765;1258;61172;-86
2023/08/21 17:54:03;;;;;;;25.00;21.30;;;;;;;29.51;60.72;98669.30;105751;1258;61084;-85
2023/08/21 17:56:30;;;;;;;22.80;20.50;;;;;;;29.44;61.04;98669.48;105679;1256;72666;-86
2023/08/21 17:58:57;;;;;;;23.00;20.00;;;;;;;29.37;61.35;98672.67;105630;1260;73388;-85
2023/08/21 18:01:24;;;;;;;19.60;17.50;;;;;;;29.30;61.76;98676.45;105686;1256;73569;-85
2023/08/21 18:03:52;;;;;;;21.50;19.50;;;;;;;29.24;62.19;98682.45;105418;1256;61142;-88
2023/08/21 18:06:21;;;;;;;23.80;21.10;;;;;;;29.18;62.58;98683.83;105617;1256;61057;-87
2023/08/21 18:08:49;;;;;;;23.60;21.30;;;;;;;29.12;62.81;98681.92;105581;1259;73466;-86
2023/08/21 18:11:16;;;;;;;22.80;20.50;;;;;;;29.06;63.21;98683.02;105510;1260;76453;-86
2023/08/21 18:13:44;;;;;;;24.10;21.70;;;;;;;29.00;63.54;98685.27;105478;1256;70698;-86
2023/08/21 18:16:11;;;;;;;21.60;19.50;;;;;;;28.95;63.69;98684.88;105462;1256;61149;-86
2023/08/21 18:18:40;;;;;;;24.70;18.90;;;;;;;28.90;64.25;98690.73;105872;1256;61152;-86
2023/08/21 18:21:07;;;;;;;26.80;19.30;;;;;;;28.84;65.06;98689.17;105681;1255;73614;-84
2023/08/21 18:23:34;;;;;;;23.10;20.20;;;;;;;28.78;65.15;98692.60;105655;1256;74455;-86
2023/08/21 18:26:02;;;;;;;23.30;20.80;;;;;;;28.73;65.14;98696.73;105597;1256;72399;-88
2023/08/21 18:28:29;;;;;;;26.00;23.40;;;;;;;28.69;65.41;98699.55;105784;1256;60988;-86
2023/08/21 18:30:58;;;;;;;26.40;22.30;;;;;;;28.65;65.52;98697.05;105823;1256;61103;-86
2023/08/21 18:33:25;;;;;;;28.70;23.90;;;;;;;28.58;65.71;98698.92;105472;1260;73719;-88
2023/08/21 18:35:53;;;;;;;28.00;22.80;;;;;;;28.52;66.03;98698.23;105507;1256;75269;-88
2023/08/21 18:38:20;;;;;;;27.20;23.30;;;;;;;28.46;66.34;98702.50;105609;1256;71435;-91
2023/08/21 18:40:47;;;;;;;27.60;24.20;;;;;;;28.41;67.04;98700.73;105634;1256;61037;-87
2023/08/21 18:43:14;;;;;;;33.80;24.30;;;;;;;28.36;67.27;98699.62;105744;1256;61173;-86
2023/08/21 18:45:41;;;;;;;31.60;25.20;;;;;;;28.30;67.75;98702.64;105906;1255;73657;-88
2023/08/21 18:48:09;;;;;;;29.20;25.50;;;;;;;28.23;68.05;98703.71;105749;1258;75447;-87
2023/08/21 18:50:38;;;;;;;29.30;24.70;;;;;;;28.17;68.70;98705.00;106094;1256;73043;-85
2023/08/21 18:53:06;;;;;;;31.50;26.00;;;;;;;28.09;68.89;98703.24;105796;1258;61231;-87
2023/08/21 18:55:44;;;;;;;31.80;26.90;;;;;;;28.03;69.18;98706.90;106677;1256;61120;-87
2023/08/21 18:58:12;;;;;;;37.10;27.70;;;;;;;27.95;69.61;98710.92;109377;1255;72630;-85
2023/08/21 19:00:39;;;;;;;29.20;26.00;;;;;;;27.88;69.77;98708.52;109244;1255;74081;-84
2023/08/21 19:03:07;;;;;;;30.10;26.60;;;;;;;27.84;70.05;98711.56;109328;1254;72117;-86
2023/08/21 19:05:37;;;;;;;28.70;23.70;;;;;;;27.80;70.24;98715.00;109196;1254;58844;-88
2023/08/21 19:08:05;;;;;;;27.50;24.40;;;;;;;27.76;70.38;98712.58;108767;1255;60313;-85
2023/08/21 19:10:32;;;;;;;25.60;21.50;;;;;;;27.73;70.74;98713.85;108529;1255;72398;-85
2023/08/21 19:13:00;;;;;;;22.20;20.10;;;;;;;27.70;70.96;98716.27;107301;1255;74375;-86
2023/08/21 19:15:28;;;;;;;21.50;19.60;;;;;;;27.65;71.05;98716.98;106530;1255;72404;-87
2023/08/21 19:17:56;;;;;;;20.30;18.30;;;;;;;27.60;71.45;98716.07;106540;1256;61051;-86
2023/08/21 19:20:23;;;;;;;20.10;18.00;;;;;;;27.52;71.76;98710.50;107009;1257;61097;-86
2023/08/21 19:22:50;;;;;;;21.20;19.00;;;;;;;27.44;72.14;98711.23;106550;1254;73746;-86
2023/08/21 19:25:20;;;;;;;21.70;19.80;;;;;;;27.34;72.44;98713.20;106757;1254;74671;-85
2023/08/21 19:27:48;;;;;;;21.00;18.80;;;;;;;27.24;73.11;98715.47;106035;1256;72685;-85
2023/08/21 19:30:18;;;;;;;23.20;19.00;;;;;;;27.14;73.67;98718.48;106161;1254;61151;-86
2023/08/21 19:32:45;;;;;;;21.00;18.50;;;;;;;27.04;73.99;98713.86;105973;1254;61096;-88
2023/08/21 19:35:12;;;;;;;21.00;18.90;;;;;;;26.97;74.20;98713.75;105646;1260;72525;-87
2023/08/21 19:37:40;;;;;;;19.80;17.70;;;;;;;26.91;74.64;98710.53;105749;1254;73465;-86
2023/08/21 19:40:08;;;;;;;19.80;17.90;;;;;;;26.85;75.01;98715.13;105807;1253;72736;-87
2023/08/21 19:42:35;;;;;;;21.70;19.60;;;;;;;26.80;74.97;98715.23;105836;1254;61072;-86
2023/08/21 19:45:02;;;;;;;21.50;19.00;;;;;;;26.78;75.45;98715.09;105768;1254;61045;-86
2023/08/21 19:47:29;;;;;;;21.30;19.20;;;;;;;26.74;75.42;98710.83;105713;1254;73755;-86
2023/08/21 19:49:56;;;;;;;20.20;18.30;;;;;;;26.69;75.62;98710.24;105776;1254;74271;-85
2023/08/21 19:52:24;;;;;;;22.90;20.50;;;;;;;26.66;75.73;98709.35;105874;1256;72626;-86
2023/08/21 19:54:51;;;;;;;21.70;19.40;;;;;;;26.65;76.11;98711.38;105752;1254;61094;-85
2023/08/21 19:57:18;;;;;;;20.30;18.50;;;;;;;26.63;76.12;98716.83;105735;1254;61142;-85
2023/08/21 19:59:45;;;;;;;20.30;18.40;;;;;;;26.62;76.12;98722.25;105783;1254;72585;-85
2023/08/21 20:02:15;;;;;;;19.70;17.90;;;;;;;26.59;76.29;98725.67;105679;1259;75350;-86
2023/08/21 20:04:42;;;;;;;21.30;17.80;;;;;;;26.56;76.52;98728.98;105669;1253;71864;-87
2023/08/21 20:07:10;;;;;;;21.80;19.80;;;;;;;26.51;76.53;98729.17;105742;1259;61214;-85
2023/08/21 20:09:39;;;;;;;20.80;18.90;;;;;;;26.46;76.98;98733.98;105597;1260;61102;-85
2023/08/21 20:12:06;;;;;;;22.00;19.80;;;;;;;26.42;77.14;98734.54;105740;1256;73988;-86
2023/08/21 20:14:33;;;;;;;25.20;22.30;;;;;;;26.39;77.18;98731.36;105651;1254;74691;-85
2023/08/21 20:17:00;;;;;;;22.60;20.40;;;;;;;26.36;77.50;98733.38;105638;1254;72700;-87
2023/08/21 20:19:28;;;;;;;22.80;20.60;;;;;;;26.33;77.50;98732.10;105540;1255;61720;-85
2023/08/21 20:21:56;;;;;;;23.00;19.10;;;;;;;26.30;77.66;98735.51;105504;1260;61113;-85
2023/08/21 20:24:24;;;;;;;22.40;20.20;;;;;;;26.29;77.50;98739.02;105526;1259;73850;-86
2023/08/21 20:26:54;;;;;;;22.00;19.80;;;;;;;26.26;77.76;98732.08;105695;1255;74246;-86
2023/08/21 20:29:22;;;;;;;22.60;20.30;;;;;;;26.22;77.83;98731.04;105429;1261;72720;-84
2023/08/21 20:31:49;;;;;;;21.60;19.60;;;;;;;26.20;77.97;98729.36;105614;1259;61164;-85
2023/08/21 20:34:18;;;;;;;20.20;18.40;;;;;;;26.18;78.10;98733.83;105678;1256;61107;-85
2023/08/21 20:36:45;;;;;;;20.60;18.70;;;;;;;26.16;77.89;98729.80;105618;1259;75126;-86
2023/08/21 20:39:12;;;;;;;20.70;18.70;;;;;;;26.14;78.14;98732.07;105676;1254;74476;-85
2023/08/21 20:41:39;;;;;;;21.70;19.40;;;;;;;26.12;78.18;98733.69;105733;1254;72308;-86
2023/08/21 20:44:06;;;;;;;21.10;19.10;;;;;;;26.08;78.05;98733.29;105639;1256;61087;-86
2023/08/21 20:46:33;;;;;;;22.50;18.70;;;;;;;26.03;78.15;98730.83;105658;1259;61187;-85
2023/08/21 20:49:01;;;;;;;22.80;18.70;;;;;;;25.97;78.41;98724.41;105766;1254;73462;-87
2023/08/21 20:51:28;;;;;;;27.30;19.90;;;;;;;25.93;78.36;98722.50;105680;1254;74284;-87
2023/08/21 20:53:55;;;;;;;21.20;19.20;;;;;;;25.90;78.77;98724.11;105811;1259;70682;-85
2023/08/21 20:56:22;;;;;;;23.90;20.20;;;;;;;25.86;78.84;98720.06;105868;1259;61200;-87
2023/08/21 20:58:49;;;;;;;21.30;19.20;;;;;;;25.83;79.20;98728.34;105583;1261;61114;-86
2023/08/21 21:01:17;;;;;;;21.30;19.30;;;;;;;25.79;79.46;98728.29;105751;1254;73642;-86
2023/08/21 21:03:44;;;;;;;19.50;17.70;;;;;;;25.74;79.69;98726.73;105694;1257;75699;-85
2023/08/21 21:06:11;;;;;;;23.00;18.60;;;;;;;25.71;79.98;98723.73;105650;1254;72361;-85
2023/08/21 21:08:38;;;;;;;20.60;18.80;;;;;;;25.66;80.14;98722.86;105694;1256;61154;-86
2023/08/21 21:11:05;;;;;;;19.50;17.80;;;;;;;25.61;80.32;98720.88;105590;1254;61177;-86
2023/08/21 21:13:33;;;;;;;20.90;18.80;;;;;;;25.57;80.38;98721.52;105615;1254;74194;-87
2023/08/21 21:16:00;;;;;;;21.50;17.80;;;;;;;25.51;80.65;98727.04;105733;1254;74582;-86
2023/08/21 21:18:27;;;;;;;18.80;17.10;;;;;;;25.44;80.98;98731.82;105695;1254;72634;-87
2023/08/21 21:20:56;;;;;;;17.30;15.80;;;;;;;25.38;81.03;98733.31;105964;1254;61998;-87
2023/08/21 21:23:23;;;;;;;19.40;17.30;;;;;;;25.33;81.12;98739.98;106451;1257;61170;-85
2023/08/21 21:25:50;;;;;;;20.50;18.50;;;;;;;25.29;81.43;98741.06;105903;1257;73548;-86
2023/08/21 21:28:17;;;;;;;20.30;18.50;;;;;;;25.23;81.67;98745.34;105674;1258;74200;-88
2023/08/21 21:30:44;;;;;;;19.10;17.20;;;;;;;25.20;81.94;98750.33;105704;1259;72563;-85
2023/08/21 21:33:11;;;;;;;18.40;16.50;;;;;;;25.17;82.16;98747.06;105670;1258;61683;-87
2023/08/21 21:35:38;;;;;;;17.90;16.40;;;;;;;25.15;82.47;98749.91;105726;1254;61053;-85
2023/08/21 21:38:05;;;;;;;19.50;17.90;;;;;;;25.12;82.57;98748.96;105561;1257;73684;-86
2023/08/21 21:40:32;;;;;;;19.10;17.30;;;;;;;25.10;82.96;98745.83;105743;1254;75236;-86
2023/08/21 21:42:59;;;;;;;19.80;17.80;;;;;;;25.08;83.04;98748.56;105607;1256;72506;-85
2023/08/21 21:45:26;;;;;;;18.80;17.10;;;;;;;25.07;83.03;98756.96;105373;1257;61945;-86
2023/08/21 21:47:53;;;;;;;18.80;17.20;;;;;;;25.06;83.11;98760.68;105375;1256;61048;-86
2023/08/21 21:50:21;;;;;;;18.40;16.90;;;;;;;25.05;83.13;98761.34;105504;1260;72335;-86
2023/08/21 21:52:48;;;;;;;18.80;17.00;;;;;;;25.05;83.19;98760.70;105719;1256;73737;-86
2023/08/21 21:55:15;;;;;;;19.30;17.70;;;;;;;25.05;83.14;98762.16;105527;1259;71376;-86
2023/08/21 21:57:43;;;;;;;19.50;17.50;;;;;;;25.04;83.17;98765.42;105540;1258;61171;-87
2023/08/21 22:00:11;;;;;;;19.40;17.70;;;;;;;25.04;83.17;98759.00;105429;1257;61172;-87
2023/08/21 22:02:40;;;;;;;16.60;15.00;;;;;;;25.03;82.94;98755.94;105389;1256;73955;-86
2023/08/21 22:05:08;;;;;;;18.10;16.60;;;;;;;25.04;83.04;98760.65;105510;1256;76788;-87
2023/08/21 22:07:35;;;;;;;17.90;16.10;;;;;;;25.03;83.04;98763.67;105463;1255;71683;-87